sensor_id;sensor_type;location;lat;lon;timestamp;pressure;altitude;pressure_sealevel;temperature;humidity
64876;BME280;51369;49.862;9.908;2023-03-04T00:00:52;98901.22;;;0.76;72.16
64876;BME280;51369;49.862;9.908;2023-03-04T00:03:18;98905.69;;;0.80;71.64
64876;BME280;51369;49.862;9.908;2023-03-04T00:05:43;98901.25;;;0.80;71.24
64876;BME280;51369;49.862;9.908;2023-03-04T00:08:09;98900.38;;;0.81;71.85
64876;BME280;51369;49.862;9.908;2023-03-04T00:10:34;98911.03;;;0.84;71.99
64876;BME280;51369;49.862;9.908;2023-03-04T00:13:00;98904.81;;;0.81;70.52
64876;BME280;51369;49.862;9.908;2023-03-04T00:15:25;98906.56;;;0.76;70.26
64876;BME280;51369;49.862;9.908;2023-03-04T00:17:51;98910.06;;;0.70;69.56
64876;BME280;51369;49.862;9.908;2023-03-04T00:20:16;98913.59;;;0.64;70.31
64876;BME280;51369;49.862;9.908;2023-03-04T00:22:41;98911.78;;;0.59;69.77
64876;BME280;51369;49.862;9.908;2023-03-04T00:25:07;98908.19;;;0.52;69.31
64876;BME280;51369;49.862;9.908;2023-03-04T00:27:32;98905.50;;;0.48;70.11
64876;BME280;51369;49.862;9.908;2023-03-04T00:29:58;98909.06;;;0.47;70.15
64876;BME280;51369;49.862;9.908;2023-03-04T00:32:23;98910.81;;;0.45;70.73
64876;BME280;51369;49.862;9.908;2023-03-04T00:34:48;98912.59;;;0.44;70.32
64876;BME280;51369;49.862;9.908;2023-03-04T00:37:14;98918.78;;;0.43;70.82
64876;BME280;51369;49.862;9.908;2023-03-04T00:39:39;98912.56;;;0.43;70.58
64876;BME280;51369;49.862;9.908;2023-03-04T00:42:05;98913.47;;;0.43;71.37
64876;BME280;51369;49.862;9.908;2023-03-04T00:44:30;98916.09;;;0.42;70.82
64876;BME280;51369;49.862;9.908;2023-03-04T00:46:56;98915.22;;;0.43;71.75
64876;BME280;51369;49.862;9.908;2023-03-04T00:49:21;98917.00;;;0.45;71.66
64876;BME280;51369;49.862;9.908;2023-03-04T00:51:47;98916.16;;;0.48;72.40
64876;BME280;51369;49.862;9.908;2023-03-04T00:54:12;98920.59;;;0.50;71.97
64876;BME280;51369;49.862;9.908;2023-03-04T00:56:37;98917.06;;;0.51;72.43
64876;BME280;51369;49.862;9.908;2023-03-04T00:59:03;98913.53;;;0.54;72.07
64876;BME280;51369;49.862;9.908;2023-03-04T01:01:29;98907.34;;;0.55;72.78
64876;BME280;51369;49.862;9.908;2023-03-04T01:03:55;98902.91;;;0.54;71.94
64876;BME280;51369;49.862;9.908;2023-03-04T01:06:20;98903.78;;;0.54;72.06
64876;BME280;51369;49.862;9.908;2023-03-04T01:08:46;98910.84;;;0.52;72.69
64876;BME280;51369;49.862;9.908;2023-03-04T01:11:12;98905.53;;;0.52;72.19
64876;BME280;51369;49.862;9.908;2023-03-04T01:13:37;98908.19;;;0.52;72.42
64876;BME280;51369;49.862;9.908;2023-03-04T01:16:04;98912.63;;;0.52;71.76
64876;BME280;51369;49.862;9.908;2023-03-04T01:18:30;98906.44;;;0.51;72.08
64876;BME280;51369;49.862;9.908;2023-03-04T01:20:56;98906.44;;;0.51;71.95
64876;BME280;51369;49.862;9.908;2023-03-04T01:23:22;98897.56;;;0.49;72.17
64876;BME280;51369;49.862;9.908;2023-03-04T01:25:47;98899.31;;;0.47;71.90
64876;BME280;51369;49.862;9.908;2023-03-04T01:28:13;98896.66;;;0.46;72.27
64876;BME280;51369;49.862;9.908;2023-03-04T01:30:39;98908.16;;;0.45;72.36
64876;BME280;51369;49.862;9.908;2023-03-04T01:33:05;98895.75;;;0.42;72.68
64876;BME280;51369;49.862;9.908;2023-03-04T01:35:31;98893.97;;;0.41;72.83
64876;BME280;51369;49.862;9.908;2023-03-04T01:37:56;98896.63;;;0.40;73.01
64876;BME280;51369;49.862;9.908;2023-03-04T01:40:22;98893.06;;;0.39;73.04
64876;BME280;51369;49.862;9.908;2023-03-04T01:42:47;98884.22;;;0.39;73.26
64876;BME280;51369;49.862;9.908;2023-03-04T01:45:17;98887.75;;;0.39;73.66
64876;BME280;51369;49.862;9.908;2023-03-04T01:47:48;98890.44;;;0.42;73.35
64876;BME280;51369;49.862;9.908;2023-03-04T01:50:27;98894.88;;;0.46;73.72
64876;BME280;51369;49.862;9.908;2023-03-04T01:52:55;98890.50;;;0.53;73.57
64876;BME280;51369;49.862;9.908;2023-03-04T01:55:22;98883.44;;;0.58;74.16
64876;BME280;51369;49.862;9.908;2023-03-04T01:57:48;98880.81;;;0.64;73.86
64876;BME280;51369;49.862;9.908;2023-03-04T02:00:24;98874.63;;;0.68;74.14
64876;BME280;51369;49.862;9.908;2023-03-04T02:02:57;98872.88;;;0.75;74.16
64876;BME280;51369;49.862;9.908;2023-03-04T02:05:24;98864.06;;;0.82;74.04
64876;BME280;51369;49.862;9.908;2023-03-04T02:07:51;98868.50;;;0.87;74.71
64876;BME280;51369;49.862;9.908;2023-03-04T02:10:17;98864.97;;;0.93;74.07
64876;BME280;51369;49.862;9.908;2023-03-04T02:12:43;98856.13;;;0.98;73.74
64876;BME280;51369;49.862;9.908;2023-03-04T02:15:09;98849.06;;;1.02;74.63
64876;BME280;51369;49.862;9.908;2023-03-04T02:17:36;98848.19;;;1.08;74.67
64876;BME280;51369;49.862;9.908;2023-03-04T02:20:19;98841.97;;;1.10;74.23
64876;BME280;51369;49.862;9.908;2023-03-04T02:23:11;98844.66;;;1.16;74.17
64876;BME280;51369;49.862;9.908;2023-03-04T02:25:46;98831.38;;;1.21;73.78
64876;BME280;51369;49.862;9.908;2023-03-04T02:28:13;98828.72;;;1.25;73.77
64876;BME280;51369;49.862;9.908;2023-03-04T02:30:39;98833.16;;;1.31;74.39
64876;BME280;51369;49.862;9.908;2023-03-04T02:33:04;98830.50;;;1.36;73.31
64876;BME280;51369;49.862;9.908;2023-03-04T02:35:30;98824.31;;;1.40;74.22
64876;BME280;51369;49.862;9.908;2023-03-04T02:37:56;98826.09;;;1.45;73.42
64876;BME280;51369;49.862;9.908;2023-03-04T02:40:32;98827.84;;;1.51;72.87
64876;BME280;51369;49.862;9.908;2023-03-04T02:42:59;98828.75;;;1.57;73.17
64876;BME280;51369;49.862;9.908;2023-03-04T02:45:38;98835.84;;;1.61;72.30
64876;BME280;51369;49.862;9.908;2023-03-04T02:48:06;98837.63;;;1.67;73.00
64876;BME280;51369;49.862;9.908;2023-03-04T02:50:37;98833.19;;;1.71;72.82
64876;BME280;51369;49.862;9.908;2023-03-04T02:53:04;98839.34;;;1.74;72.30
64876;BME280;51369;49.862;9.908;2023-03-04T02:55:30;98832.28;;;1.73;72.79
64876;BME280;51369;49.862;9.908;2023-03-04T02:57:57;98834.91;;;1.76;72.26
64876;BME280;51369;49.862;9.908;2023-03-04T03:00:22;98834.03;;;1.77;72.50
64876;BME280;51369;49.862;9.908;2023-03-04T03:02:48;98828.72;;;1.80;73.18
64876;BME280;51369;49.862;9.908;2023-03-04T03:05:14;98827.81;;;1.83;72.57
64876;BME280;51369;49.862;9.908;2023-03-04T03:07:40;98828.69;;;1.86;73.16
64876;BME280;51369;49.862;9.908;2023-03-04T03:10:06;98831.38;;;1.88;73.14
64876;BME280;51369;49.862;9.908;2023-03-04T03:12:31;98823.38;;;1.89;72.68
64876;BME280;51369;49.862;9.908;2023-03-04T03:14:57;98816.28;;;1.91;72.74
64876;BME280;51369;49.862;9.908;2023-03-04T03:17:23;98816.28;;;1.96;73.23
64876;BME280;51369;49.862;9.908;2023-03-04T03:19:48;98814.47;;;2.00;72.01
64876;BME280;51369;49.862;9.908;2023-03-04T03:22:14;98809.16;;;2.03;72.85
64876;BME280;51369;49.862;9.908;2023-03-04T03:24:40;98815.38;;;2.05;71.84
64876;BME280;51369;49.862;9.908;2023-03-04T03:27:05;98809.16;;;2.06;72.02
64876;BME280;51369;49.862;9.908;2023-03-04T03:29:31;98805.59;;;2.07;72.72
64876;BME280;51369;49.862;9.908;2023-03-04T03:31:57;98814.47;;;2.09;72.87
64876;BME280;51369;49.862;9.908;2023-03-04T03:34:22;98812.69;;;2.11;72.89
64876;BME280;51369;49.862;9.908;2023-03-04T03:36:48;98804.69;;;2.12;72.76
64876;BME280;51369;49.862;9.908;2023-03-04T03:39:13;98806.47;;;2.16;72.40
64876;BME280;51369;49.862;9.908;2023-03-04T03:41:40;98817.13;;;2.18;72.68
64876;BME280;51369;49.862;9.908;2023-03-04T03:44:05;98810.00;;;2.20;73.06
64876;BME280;51369;49.862;9.908;2023-03-04T03:46:31;98816.22;;;2.22;72.16
64876;BME280;51369;49.862;9.908;2023-03-04T03:48:56;98809.13;;;2.22;72.50
64876;BME280;51369;49.862;9.908;2023-03-04T03:51:22;98809.09;;;2.24;72.06
64876;BME280;51369;49.862;9.908;2023-03-04T03:53:48;98804.66;;;2.23;71.49
64876;BME280;51369;49.862;9.908;2023-03-04T03:56:13;98814.44;;;2.24;71.76
64876;BME280;51369;49.862;9.908;2023-03-04T03:58:38;98811.75;;;2.25;71.50
64876;BME280;51369;49.862;9.908;2023-03-04T04:01:04;98815.31;;;2.26;71.87
64876;BME280;51369;49.862;9.908;2023-03-04T04:03:29;98822.41;;;2.28;71.53
64876;BME280;51369;49.862;9.908;2023-03-04T04:05:55;98817.97;;;2.29;71.56
64876;BME280;51369;49.862;9.908;2023-03-04T04:08:21;98814.41;;;2.30;71.91
64876;BME280;51369;49.862;9.908;2023-03-04T04:10:46;98814.41;;;2.33;72.27
64876;BME280;51369;49.862;9.908;2023-03-04T04:13:12;98817.97;;;2.34;72.42
64876;BME280;51369;49.862;9.908;2023-03-04T04:15:37;98809.97;;;2.35;71.36
64876;BME280;51369;49.862;9.908;2023-03-04T04:18:07;98812.63;;;2.35;72.20
64876;BME280;51369;49.862;9.908;2023-03-04T04:20:33;98805.50;;;2.37;72.08
64876;BME280;51369;49.862;9.908;2023-03-04T04:22:58;98804.63;;;2.38;71.80
64876;BME280;51369;49.862;9.908;2023-03-04T04:25:24;98802.84;;;2.39;71.50
64876;BME280;51369;49.862;9.908;2023-03-04T04:27:49;98805.50;;;2.40;71.86
64876;BME280;51369;49.862;9.908;2023-03-04T04:30:14;98799.28;;;2.41;71.26
64876;BME280;51369;49.862;9.908;2023-03-04T04:32:40;98798.38;;;2.42;71.21
64876;BME280;51369;49.862;9.908;2023-03-04T04:35:06;98806.38;;;2.45;70.99
64876;BME280;51369;49.862;9.908;2023-03-04T04:37:32;98795.72;;;2.45;70.98
64876;BME280;51369;49.862;9.908;2023-03-04T04:39:57;98801.94;;;2.47;71.25
64876;BME280;51369;49.862;9.908;2023-03-04T04:42:23;98801.03;;;2.48;70.62
64876;BME280;51369;49.862;9.908;2023-03-04T04:44:48;98798.38;;;2.50;70.97
64876;BME280;51369;49.862;9.908;2023-03-04T04:47:13;98791.25;;;2.53;71.68
64876;BME280;51369;49.862;9.908;2023-03-04T04:49:39;98803.66;;;2.57;70.77
64876;BME280;51369;49.862;9.908;2023-03-04T04:52:04;98795.63;;;2.65;70.93
64876;BME280;51369;49.862;9.908;2023-03-04T04:54:30;98802.72;;;2.69;69.93
64876;BME280;51369;49.862;9.908;2023-03-04T04:56:55;98798.28;;;2.71;70.53
64876;BME280;51369;49.862;9.908;2023-03-04T04:59:21;98792.03;;;2.74;70.67
64876;BME280;51369;49.862;9.908;2023-03-04T05:01:46;98791.16;;;2.75;69.41
64876;BME280;51369;49.862;9.908;2023-03-04T05:04:12;98796.47;;;2.76;69.39
64876;BME280;51369;49.862;9.908;2023-03-04T05:06:37;98804.47;;;2.79;69.88
64876;BME280;51369;49.862;9.908;2023-03-04T05:09:03;98809.78;;;2.81;69.89
64876;BME280;51369;49.862;9.908;2023-03-04T05:11:29;98806.22;;;2.82;69.23
64876;BME280;51369;49.862;9.908;2023-03-04T05:13:54;98805.31;;;2.83;69.94
64876;BME280;51369;49.862;9.908;2023-03-04T05:16:19;98804.44;;;2.84;68.88
64876;BME280;51369;49.862;9.908;2023-03-04T05:18:45;98800.88;;;2.85;69.48
64876;BME280;51369;49.862;9.908;2023-03-04T05:21:11;98802.66;;;2.86;69.23
64876;BME280;51369;49.862;9.908;2023-03-04T05:23:39;98800.84;;;2.88;68.41
64876;BME280;51369;49.862;9.908;2023-03-04T05:26:05;98807.06;;;2.90;69.04
64876;BME280;51369;49.862;9.908;2023-03-04T05:28:31;98802.63;;;2.90;68.42
64876;BME280;51369;49.862;9.908;2023-03-04T05:30:57;98808.84;;;2.91;69.32
64876;BME280;51369;49.862;9.908;2023-03-04T05:33:22;98807.06;;;2.93;68.13
64876;BME280;51369;49.862;9.908;2023-03-04T05:35:48;98810.59;;;2.95;67.68
64876;BME280;51369;49.862;9.908;2023-03-04T05:38:17;98803.47;;;2.97;68.62
64876;BME280;51369;49.862;9.908;2023-03-04T05:40:43;98807.00;;;2.99;68.34
64876;BME280;51369;49.862;9.908;2023-03-04T05:43:09;98804.34;;;2.99;67.49
64876;BME280;51369;49.862;9.908;2023-03-04T05:45:35;98809.69;;;3.01;67.85
64876;BME280;51369;49.862;9.908;2023-03-04T05:48:01;98813.22;;;3.03;67.47
64876;BME280;51369;49.862;9.908;2023-03-04T05:50:27;98814.09;;;3.03;66.87
64876;BME280;51369;49.862;9.908;2023-03-04T05:52:54;98822.09;;;3.05;67.02
64876;BME280;51369;49.862;9.908;2023-03-04T05:55:19;98812.31;;;3.05;66.93
64876;BME280;51369;49.862;9.908;2023-03-04T05:57:45;98819.44;;;3.06;67.15
64876;BME280;51369;49.862;9.908;2023-03-04T06:00:13;98814.97;;;3.07;66.44
64876;BME280;51369;49.862;9.908;2023-03-04T06:02:39;98822.06;;;3.09;66.54
64876;BME280;51369;49.862;9.908;2023-03-04T06:05:05;98822.97;;;3.10;67.57
64876;BME280;51369;49.862;9.908;2023-03-04T06:07:30;98825.63;;;3.11;66.72
64876;BME280;51369;49.862;9.908;2023-03-04T06:09:56;98821.19;;;3.10;67.71
64876;BME280;51369;49.862;9.908;2023-03-04T06:12:21;98834.50;;;3.12;67.37
64876;BME280;51369;49.862;9.908;2023-03-04T06:14:47;98828.28;;;3.13;66.97
64876;BME280;51369;49.862;9.908;2023-03-04T06:17:13;98822.94;;;3.14;66.47
64876;BME280;51369;49.862;9.908;2023-03-04T06:19:38;98830.03;;;3.15;67.32
64876;BME280;51369;49.862;9.908;2023-03-04T06:22:06;98834.47;;;3.16;66.48
64876;BME280;51369;49.862;9.908;2023-03-04T06:24:32;98838.94;;;3.17;66.06
64876;BME280;51369;49.862;9.908;2023-03-04T06:26:58;98830.91;;;3.17;67.14
64876;BME280;51369;49.862;9.908;2023-03-04T06:29:23;98840.69;;;3.18;67.15
64876;BME280;51369;49.862;9.908;2023-03-04T06:31:49;98837.13;;;3.19;67.68
64876;BME280;51369;49.862;9.908;2023-03-04T06:34:14;98843.34;;;3.21;66.63
64876;BME280;51369;49.862;9.908;2023-03-04T06:36:39;98842.44;;;3.22;66.76
64876;BME280;51369;49.862;9.908;2023-03-04T06:39:06;98846.00;;;3.23;66.10
64876;BME280;51369;49.862;9.908;2023-03-04T06:41:32;98851.34;;;3.24;66.65
64876;BME280;51369;49.862;9.908;2023-03-04T06:43:58;98848.66;;;3.24;66.64
64876;BME280;51369;49.862;9.908;2023-03-04T06:46:23;98847.78;;;3.25;67.41
64876;BME280;51369;49.862;9.908;2023-03-04T06:48:48;98853.09;;;3.29;67.04
64876;BME280;51369;49.862;9.908;2023-03-04T06:51:14;98850.41;;;3.30;66.63
64876;BME280;51369;49.862;9.908;2023-03-04T06:53:40;98855.72;;;3.33;65.98
64876;BME280;51369;49.862;9.908;2023-03-04T06:56:07;98845.94;;;3.34;66.76
64876;BME280;51369;49.862;9.908;2023-03-04T06:58:33;98859.25;;;3.37;66.78
64876;BME280;51369;49.862;9.908;2023-03-04T07:01:16;98858.38;;;3.38;66.40
64876;BME280;51369;49.862;9.908;2023-03-04T07:03:43;98852.13;;;3.40;66.99
64876;BME280;51369;49.862;9.908;2023-03-04T07:06:10;98864.56;;;3.43;65.75
64876;BME280;51369;49.862;9.908;2023-03-04T07:08:37;98867.22;;;3.46;66.85
64876;BME280;51369;49.862;9.908;2023-03-04T07:11:02;98855.59;;;3.47;66.07
64876;BME280;51369;49.862;9.908;2023-03-04T07:13:28;98867.16;;;3.50;66.24
64876;BME280;51369;49.862;9.908;2023-03-04T07:15:53;98870.69;;;3.54;65.81
64876;BME280;51369;49.862;9.908;2023-03-04T07:18:18;98874.22;;;3.57;66.57
64876;BME280;51369;49.862;9.908;2023-03-04T07:20:44;98867.97;;;3.60;66.10
64876;BME280;51369;49.862;9.908;2023-03-04T07:23:09;98875.06;;;3.63;65.94
64876;BME280;51369;49.862;9.908;2023-03-04T07:25:35;98870.59;;;3.66;65.76
64876;BME280;51369;49.862;9.908;2023-03-04T07:28:00;98875.03;;;3.70;66.22
64876;BME280;51369;49.862;9.908;2023-03-04T07:30:25;98883.91;;;3.72;66.39
64876;BME280;51369;49.862;9.908;2023-03-04T07:32:52;98883.00;;;3.73;65.34
64876;BME280;51369;49.862;9.908;2023-03-04T07:35:20;98887.44;;;3.76;65.19
64876;BME280;51369;49.862;9.908;2023-03-04T07:37:46;98887.44;;;3.77;65.12
64876;BME280;51369;49.862;9.908;2023-03-04T07:40:11;98888.28;;;3.81;65.39
64876;BME280;51369;49.862;9.908;2023-03-04T07:42:37;98882.91;;;3.85;65.39
64876;BME280;51369;49.862;9.908;2023-03-04T07:45:08;98889.13;;;3.89;65.58
64876;BME280;51369;49.862;9.908;2023-03-04T07:47:34;98885.53;;;3.93;65.96
64876;BME280;51369;49.862;9.908;2023-03-04T07:50:00;98880.16;;;3.96;64.99
64876;BME280;51369;49.862;9.908;2023-03-04T07:52:25;98877.47;;;3.99;64.64
64876;BME280;51369;49.862;9.908;2023-03-04T07:54:50;98887.22;;;4.03;65.40
64876;BME280;51369;49.862;9.908;2023-03-04T07:57:16;98883.63;;;4.06;65.35
64876;BME280;51369;49.862;9.908;2023-03-04T07:59:41;98888.94;;;4.12;64.62
64876;BME280;51369;49.862;9.908;2023-03-04T08:02:06;98887.09;;;4.17;65.64
64876;BME280;51369;49.862;9.908;2023-03-04T08:04:32;98887.09;;;4.18;64.57
64876;BME280;51369;49.862;9.908;2023-03-04T08:06:57;98883.47;;;4.24;64.53
64876;BME280;51369;49.862;9.908;2023-03-04T08:09:23;98890.56;;;4.28;63.84
64876;BME280;51369;49.862;9.908;2023-03-04T08:11:49;98885.19;;;4.31;64.39
64876;BME280;51369;49.862;9.908;2023-03-04T08:14:15;98891.41;;;4.32;64.45
64876;BME280;51369;49.862;9.908;2023-03-04T08:16:41;98891.38;;;4.36;64.71
64876;BME280;51369;49.862;9.908;2023-03-04T08:19:06;98885.97;;;4.42;64.21
64876;BME280;51369;49.862;9.908;2023-03-04T08:21:32;98889.47;;;4.49;63.59
64876;BME280;51369;49.862;9.908;2023-03-04T08:23:59;98886.75;;;4.52;63.97
64876;BME280;51369;49.862;9.908;2023-03-04T08:26:29;98885.84;;;4.56;63.95
64876;BME280;51369;49.862;9.908;2023-03-04T08:28:56;98892.00;;;4.61;63.95
64876;BME280;51369;49.862;9.908;2023-03-04T08:31:22;98886.63;;;4.66;63.29
64876;BME280;51369;49.862;9.908;2023-03-04T08:33:47;98890.16;;;4.69;64.19
64876;BME280;51369;49.862;9.908;2023-03-04T08:36:14;98896.34;;;4.73;63.66
64876;BME280;51369;49.862;9.908;2023-03-04T08:38:39;98895.41;;;4.77;64.28
64876;BME280;51369;49.862;9.908;2023-03-04T08:41:05;98889.13;;;4.81;63.92
64876;BME280;51369;49.862;9.908;2023-03-04T08:43:31;98895.31;;;4.86;63.49
64876;BME280;51369;49.862;9.908;2023-03-04T08:45:58;98894.38;;;4.90;63.75
64876;BME280;51369;49.862;9.908;2023-03-04T08:48:23;98894.31;;;4.93;63.45
64876;BME280;51369;49.862;9.908;2023-03-04T08:50:50;98889.81;;;4.97;62.89
64876;BME280;51369;49.862;9.908;2023-03-04T08:53:16;98898.69;;;5.00;62.65
64876;BME280;51369;49.862;9.908;2023-03-04T08:55:42;98896.91;;;5.02;62.80
64876;BME280;51369;49.862;9.908;2023-03-04T08:58:07;98903.06;;;5.07;62.48
64876;BME280;51369;49.862;9.908;2023-03-04T09:00:36;98887.88;;;5.09;61.92
64876;BME280;51369;49.862;9.908;2023-03-04T09:03:02;98893.19;;;5.14;62.85
64876;BME280;51369;49.862;9.908;2023-03-04T09:05:28;98896.69;;;5.17;62.37
64876;BME280;51369;49.862;9.908;2023-03-04T09:07:54;98889.47;;;5.22;62.62
64876;BME280;51369;49.862;9.908;2023-03-04T09:10:19;98895.66;;;5.28;62.14
64876;BME280;51369;49.862;9.908;2023-03-04T09:12:45;98894.69;;;5.33;62.96
64876;BME280;51369;49.862;9.908;2023-03-04T09:15:11;98886.59;;;5.38;62.58
64876;BME280;51369;49.862;9.908;2023-03-04T09:17:38;98892.75;;;5.43;61.73
64876;BME280;51369;49.862;9.908;2023-03-04T09:20:04;98890.00;;;5.49;61.42
64876;BME280;51369;49.862;9.908;2023-03-04T09:22:30;98896.19;;;5.52;61.35
64876;BME280;51369;49.862;9.908;2023-03-04T09:24:55;98889.91;;;5.55;61.11
64876;BME280;51369;49.862;9.908;2023-03-04T09:27:21;98893.41;;;5.60;61.08
64876;BME280;51369;49.862;9.908;2023-03-04T09:29:46;98888.88;;;5.65;61.24
64876;BME280;51369;49.862;9.908;2023-03-04T09:32:11;98889.69;;;5.70;61.41
64876;BME280;51369;49.862;9.908;2023-03-04T09:34:37;98892.31;;;5.73;60.56
64876;BME280;51369;49.862;9.908;2023-03-04T09:37:03;98886.00;;;5.77;60.60
64876;BME280;51369;49.862;9.908;2023-03-04T09:39:28;98885.03;;;5.81;60.93
64876;BME280;51369;49.862;9.908;2023-03-04T09:41:57;98886.75;;;5.85;60.19
64876;BME280;51369;49.862;9.908;2023-03-04T09:44:35;98890.28;;;5.91;60.54
64876;BME280;51369;49.862;9.908;2023-03-04T09:47:11;98882.16;;;5.97;60.82
64876;BME280;51369;49.862;9.908;2023-03-04T09:49:40;98883.84;;;6.02;60.55
64876;BME280;51369;49.862;9.908;2023-03-04T09:57:55;98887.22;;;6.15;59.79
64876;BME280;51369;49.862;9.908;2023-03-04T10:00:36;98893.38;;;6.20;59.71
64876;BME280;51369;49.862;9.908;2023-03-04T10:05:48;98889.63;;;6.30;59.83
64876;BME280;51369;49.862;9.908;2023-03-04T10:10:50;98872.50;;;6.39;60.02
64876;BME280;51369;49.862;9.908;2023-03-04T10:13:20;98878.69;;;6.42;59.66
64876;BME280;51369;49.862;9.908;2023-03-04T10:15:49;98876.81;;;6.47;59.73
64876;BME280;51369;49.862;9.908;2023-03-04T10:18:21;98870.53;;;6.48;59.11
64876;BME280;51369;49.862;9.908;2023-03-04T10:21:10;98869.59;;;6.51;59.41
64876;BME280;51369;49.862;9.908;2023-03-04T10:23:41;98874.84;;;6.57;59.31
64876;BME280;51369;49.862;9.908;2023-03-04T10:26:16;98874.84;;;6.57;59.06
64876;BME280;51369;49.862;9.908;2023-03-04T10:28:42;98876.56;;;6.61;59.14
64876;BME280;51369;49.862;9.908;2023-03-04T10:33:35;98863.00;;;6.69;58.90
64876;BME280;51369;49.862;9.908;2023-03-04T10:36:26;98868.25;;;6.75;58.99
64876;BME280;51369;49.862;9.908;2023-03-04T10:41:31;98873.50;;;6.81;58.70
64876;BME280;51369;49.862;9.908;2023-03-04T10:44:12;98872.56;;;6.82;58.70
64876;BME280;51369;49.862;9.908;2023-03-04T10:46:45;98869.00;;;6.81;58.40
64876;BME280;51369;49.862;9.908;2023-03-04T10:49:12;98869.88;;;6.82;58.17
64876;BME280;51369;49.862;9.908;2023-03-04T10:51:47;98872.59;;;6.80;57.54
64876;BME280;51369;49.862;9.908;2023-03-04T10:54:24;98864.59;;;6.79;57.67
64876;BME280;51369;49.862;9.908;2023-03-04T10:57:10;98868.06;;;6.84;57.87
64876;BME280;51369;49.862;9.908;2023-03-04T11:02:22;98857.97;;;6.95;57.89
64876;BME280;51369;49.862;9.908;2023-03-04T11:04:51;98863.25;;;6.98;58.21
64876;BME280;51369;49.862;9.908;2023-03-04T11:07:18;98867.69;;;7.01;57.85
64876;BME280;51369;49.862;9.908;2023-03-04T11:09:44;98856.88;;;7.04;57.90
64876;BME280;51369;49.862;9.908;2023-03-04T11:12:15;98865.84;;;7.03;57.58
64876;BME280;51369;49.862;9.908;2023-03-04T11:14:47;98860.50;;;7.01;57.87
64876;BME280;51369;49.862;9.908;2023-03-04T11:17:18;98854.31;;;6.98;57.54
64876;BME280;51369;49.862;9.908;2023-03-04T11:19:47;98851.66;;;6.96;57.74
64876;BME280;51369;49.862;9.908;2023-03-04T11:22:17;98849.94;;;6.94;57.09
64876;BME280;51369;49.862;9.908;2023-03-04T11:24:53;98843.66;;;6.95;57.35
64876;BME280;51369;49.862;9.908;2023-03-04T11:33:03;98844.38;;;7.03;57.66
64876;BME280;51369;49.862;9.908;2023-03-04T11:35:32;98839.88;;;7.03;57.40
64876;BME280;51369;49.862;9.908;2023-03-04T11:38:17;98840.88;;;6.99;57.65
64876;BME280;51369;49.862;9.908;2023-03-04T11:40:48;98833.69;;;7.00;57.41
64876;BME280;51369;49.862;9.908;2023-03-04T11:43:32;98840.81;;;7.02;58.00
64876;BME280;51369;49.862;9.908;2023-03-04T11:48:37;98830.06;;;7.02;57.85
64876;BME280;51369;49.862;9.908;2023-03-04T11:54:01;98830.84;;;7.07;57.61
64876;BME280;51369;49.862;9.908;2023-03-04T11:56:34;98822.84;;;7.06;57.83
64876;BME280;51369;49.862;9.908;2023-03-04T12:04:45;98815.56;;;7.11;57.81
64876;BME280;51369;49.862;9.908;2023-03-04T12:07:21;98810.09;;;7.15;57.83
64876;BME280;51369;49.862;9.908;2023-03-04T12:32:17;98792.25;;;7.51;57.27
64876;BME280;51369;49.862;9.908;2023-03-04T12:34:57;98785.97;;;7.53;57.46
64876;BME280;51369;49.862;9.908;2023-03-04T12:40:36;98790.44;;;7.52;57.39
64876;BME280;51369;49.862;9.908;2023-03-04T12:43:12;98788.56;;;7.56;57.41
64876;BME280;51369;49.862;9.908;2023-03-04T12:51:59;98778.81;;;7.51;57.24
64876;BME280;51369;49.862;9.908;2023-03-04T12:54:31;98770.75;;;7.51;57.39
64876;BME280;51369;49.862;9.908;2023-03-04T12:57:17;98770.75;;;7.51;57.25
64876;BME280;51369;49.862;9.908;2023-03-04T13:10:51;98757.78;;;7.69;57.39
64876;BME280;51369;49.862;9.908;2023-03-04T13:18:38;98745.03;;;7.77;57.81
64876;BME280;51369;49.862;9.908;2023-03-04T13:21:16;98743.22;;;7.77;57.58
64876;BME280;51369;49.862;9.908;2023-03-04T13:23:44;98739.59;;;7.80;57.28
64876;BME280;51369;49.862;9.908;2023-03-04T13:26:19;98732.41;;;7.80;56.94
64876;BME280;51369;49.862;9.908;2023-03-04T13:28:51;98727.88;;;7.82;56.76
64876;BME280;51369;49.862;9.908;2023-03-04T13:31:21;98726.03;;;7.84;56.79
64876;BME280;51369;49.862;9.908;2023-03-04T13:33:54;98717.91;;;7.86;56.26
64876;BME280;51369;49.862;9.908;2023-03-04T13:36:34;98714.38;;;7.84;56.84
64876;BME280;51369;49.862;9.908;2023-03-04T13:44:30;98706.03;;;7.95;56.44
64876;BME280;51369;49.862;9.908;2023-03-04T13:46:56;98704.19;;;7.97;56.37
64876;BME280;51369;49.862;9.908;2023-03-04T13:49:22;98713.13;;;7.97;56.73
64876;BME280;51369;49.862;9.908;2023-03-04T13:51:49;98711.25;;;8.01;56.45
64876;BME280;51369;49.862;9.908;2023-03-04T13:57:10;98700.38;;;8.05;56.78
64876;BME280;51369;49.862;9.908;2023-03-04T13:59:44;98702.19;;;8.05;56.60
64876;BME280;51369;49.862;9.908;2023-03-04T14:02:18;98707.59;;;8.03;56.57
64876;BME280;51369;49.862;9.908;2023-03-04T14:07:27;98703.28;;;7.98;56.59
64876;BME280;51369;49.862;9.908;2023-03-04T14:12:39;98697.25;;;7.88;56.42
64876;BME280;51369;49.862;9.908;2023-03-04T14:17:45;98692.00;;;7.83;56.99
64876;BME280;51369;49.862;9.908;2023-03-04T14:20:30;98685.78;;;7.81;57.03
64876;BME280;51369;49.862;9.908;2023-03-04T14:22:57;98692.03;;;7.82;56.81
64876;BME280;51369;49.862;9.908;2023-03-04T14:25:26;98693.84;;;7.81;56.57
64876;BME280;51369;49.862;9.908;2023-03-04T14:28:10;98687.66;;;7.78;56.83
64876;BME280;51369;49.862;9.908;2023-03-04T14:30:39;98684.03;;;7.80;56.75
64876;BME280;51369;49.862;9.908;2023-03-04T14:33:07;98683.13;;;7.80;57.50
64876;BME280;51369;49.862;9.908;2023-03-04T14:35:34;98687.63;;;7.79;57.06
64876;BME280;51369;49.862;9.908;2023-03-04T14:38:06;98691.19;;;7.80;57.70
64876;BME280;51369;49.862;9.908;2023-03-04T14:40:35;98687.63;;;7.79;57.28
64876;BME280;51369;49.862;9.908;2023-03-04T14:43:06;98677.81;;;7.78;57.52
64876;BME280;51369;49.862;9.908;2023-03-04T14:45:34;98679.69;;;7.75;57.55
64876;BME280;51369;49.862;9.908;2023-03-04T14:48:04;98677.03;;;7.73;57.42
64876;BME280;51369;49.862;9.908;2023-03-04T14:50:30;98674.41;;;7.72;57.58
64876;BME280;51369;49.862;9.908;2023-03-04T14:55:33;98665.44;;;7.71;58.13